Aviation Digital Data Service (ADDS)

Output produced by METARs form (0237 UTC 25 January 2020)
found at http://www.aviationweather.gov/metar/data/
 
METAR text: RJOT 250200Z 05012KT 9999 FEW030 BKN140 08/01 Q1028
Conditions at: RJOT (TAKAMATSU AIRPOR, JP) observed 0200 UTC 25 January 2020
Temperature: 8.0°C (46°F)
Dewpoint: 1.0°C (34°F) [RH = 61%]
Pressure (altimeter): 30.35 inches Hg (1028.0 mb)
Winds: from the NE (50 degrees) at 14 MPH (12 knots; 6.2 m/s)
Visibility: 6 or more miles (10+ km)
Ceiling: 14000 feet AGL
Clouds: few clouds at 3000 feet AGL
broken clouds at 14000 feet AGL
Weather: no significant weather observed at this time

METAR text: RJOT 250100Z 08012KT 050V110 9999 FEW025 BKN150 07/01 Q1029
Conditions at: RJOT (TAKAMATSU AIRPOR, JP) observed 0100 UTC 25 January 2020
Temperature: 7.0°C (45°F)
Dewpoint: 1.0°C (34°F) [RH = 66%]
Pressure (altimeter): 30.38 inches Hg (1029.0 mb)
Winds: from the E (80 degrees) at 14 MPH (12 knots; 6.2 m/s)
Visibility: 6 or more miles (10+ km)
Ceiling: 15000 feet AGL
Clouds: few clouds at 2500 feet AGL
broken clouds at 15000 feet AGL
Weather: no significant weather observed at this time

METAR text: RJOT 250000Z 08007KT 050V130 9999 FEW020 BKN030 06/01 Q1030
Conditions at: RJOT (TAKAMATSU AIRPOR, JP) observed 0000 UTC 25 January 2020
Temperature: 6.0°C (43°F)
Dewpoint: 1.0°C (34°F) [RH = 70%]
Pressure (altimeter): 30.41 inches Hg (1030.0 mb)
Winds: from the E (80 degrees) at 8 MPH (7 knots; 3.6 m/s)
Visibility: 6 or more miles (10+ km)
Ceiling: 3000 feet AGL
Clouds: few clouds at 2000 feet AGL
broken clouds at 3000 feet AGL
Weather: no significant weather observed at this time

METAR text: RJOT 242300Z 09006KT 060V120 9999 FEW020 BKN030 06/01 Q1029
Conditions at: RJOT (TAKAMATSU AIRPOR, JP) observed 2300 UTC 24 January 2020
Temperature: 6.0°C (43°F)
Dewpoint: 1.0°C (34°F) [RH = 70%]
Pressure (altimeter): 30.38 inches Hg (1029.0 mb)
Winds: from the E (90 degrees) at 7 MPH (6 knots; 3.1 m/s)
Visibility: 6 or more miles (10+ km)
Ceiling: 3000 feet AGL
Clouds: few clouds at 2000 feet AGL
broken clouds at 3000 feet AGL
Weather: no significant weather observed at this time

METAR text: RJOT 242200Z 09004KT 9999 FEW020 BKN030 05/01 Q1029
Conditions at: RJOT (TAKAMATSU AIRPOR, JP) observed 2200 UTC 24 January 2020
Temperature: 5.0°C (41°F)
Dewpoint: 1.0°C (34°F) [RH = 75%]
Pressure (altimeter): 30.38 inches Hg (1029.0 mb)
Winds: from the E (90 degrees) at 5 MPH (4 knots; 2.1 m/s)
Visibility: 6 or more miles (10+ km)
Ceiling: 3000 feet AGL
Clouds: few clouds at 2000 feet AGL
broken clouds at 3000 feet AGL
Weather: no significant weather observed at this time

METAR text: RJOT 242120Z 09006KT 9999 FEW020 BKN025 06/02 Q1028 RMK 1CU020 6CU025 A3038
Conditions at: RJOT (TAKAMATSU AIRPOR, JP) observed 2120 UTC 24 January 2020
Temperature: 6.0°C (43°F)
Dewpoint: 2.0°C (36°F) [RH = 75%]
Pressure (altimeter): 30.35 inches Hg (1028.0 mb)
Winds: from the E (90 degrees) at 7 MPH (6 knots; 3.1 m/s)
Visibility: 6 or more miles (10+ km)
Ceiling: 2500 feet AGL
Clouds: few clouds at 2000 feet AGL
broken clouds at 2500 feet AGL
Weather: no significant weather observed at this time

METAR text: RJOT 241200Z VRB02KT 9999 FEW020 SCT035 BKN/// 09/06 Q1028
Conditions at: RJOT (TAKAMATSU AIRPOR, JP) observed 1200 UTC 24 January 2020
Temperature: 9.0°C (48°F)
Dewpoint: 6.0°C (43°F) [RH = 81%]
Pressure (altimeter): 30.35 inches Hg (1028.0 mb)
Winds: variable direction winds at 2 MPH (2 knots; 1.0 m/s)
Visibility: 6 or more miles (10+ km)
Ceiling: at least 12,000 feet AGL
Clouds: few clouds at 2000 feet AGL
scattered clouds at 3500 feet AGL
Weather: no significant weather observed at this time

METAR text: RJOT 241100Z VRB01KT 9999 FEW020 SCT040 BKN060 10/05 Q1027
Conditions at: RJOT (TAKAMATSU AIRPOR, JP) observed 1100 UTC 24 January 2020
Temperature: 10.0°C (50°F)
Dewpoint: 5.0°C (41°F) [RH = 71%]
Pressure (altimeter): 30.32 inches Hg (1027.0 mb)
Winds: variable direction winds at 1 MPH (1 knots; 0.5 m/s)
Visibility: 6 or more miles (10+ km)
Ceiling: 6000 feet AGL
Clouds: few clouds at 2000 feet AGL
scattered clouds at 4000 feet AGL
broken clouds at 6000 feet AGL
Weather: no significant weather observed at this time

METAR text: RJOT 241000Z VRB02KT 9999 FEW020 SCT050 BKN120 09/07 Q1026
Conditions at: RJOT (TAKAMATSU AIRPOR, JP) observed 1000 UTC 24 January 2020
Temperature: 9.0°C (48°F)
Dewpoint: 7.0°C (45°F) [RH = 87%]
Pressure (altimeter): 30.30 inches Hg (1026.0 mb)
Winds: variable direction winds at 2 MPH (2 knots; 1.0 m/s)
Visibility: 6 or more miles (10+ km)
Ceiling: 12000 feet AGL
Clouds: few clouds at 2000 feet AGL
scattered clouds at 5000 feet AGL
broken clouds at 12000 feet AGL
Weather: no significant weather observed at this time

METAR text: RJOT 240900Z 20002KT 9999 FEW020 SCT050 BKN120 10/07 Q1026
Conditions at: RJOT (TAKAMATSU AIRPOR, JP) observed 0900 UTC 24 January 2020
Temperature: 10.0°C (50°F)
Dewpoint: 7.0°C (45°F) [RH = 82%]
Pressure (altimeter): 30.30 inches Hg (1026.0 mb)
Winds: from the SSW (200 degrees) at 2 MPH (2 knots; 1.0 m/s)
Visibility: 6 or more miles (10+ km)
Ceiling: 12000 feet AGL
Clouds: few clouds at 2000 feet AGL
scattered clouds at 5000 feet AGL
broken clouds at 12000 feet AGL
Weather: no significant weather observed at this time

METAR text: RJOT 240800Z 36005KT 330V050 9999 FEW020 SCT050 BKN120 11/06 Q1025
Conditions at: RJOT (TAKAMATSU AIRPOR, JP) observed 0800 UTC 24 January 2020
Temperature: 11.0°C (52°F)
Dewpoint: 6.0°C (43°F) [RH = 71%]
Pressure (altimeter): 30.27 inches Hg (1025.0 mb)
Winds: from the N (360 degrees) at 6 MPH (5 knots; 2.6 m/s)
Visibility: 6 or more miles (10+ km)
Ceiling: 12000 feet AGL
Clouds: few clouds at 2000 feet AGL
scattered clouds at 5000 feet AGL
broken clouds at 12000 feet AGL
Weather: no significant weather observed at this time

METAR text: RJOT 240700Z 01006KT 9999 FEW020 SCT030 BKN050 12/07 Q1025
Conditions at: RJOT (TAKAMATSU AIRPOR, JP) observed 0700 UTC 24 January 2020
Temperature: 12.0°C (54°F)
Dewpoint: 7.0°C (45°F) [RH = 71%]
Pressure (altimeter): 30.27 inches Hg (1025.0 mb)
Winds: from the N (10 degrees) at 7 MPH (6 knots; 3.1 m/s)
Visibility: 6 or more miles (10+ km)
Ceiling: 5000 feet AGL
Clouds: few clouds at 2000 feet AGL
scattered clouds at 3000 feet AGL
broken clouds at 5000 feet AGL
Weather: no significant weather observed at this time

METAR text: RJOT 240600Z 36006KT 320V050 9999 FEW020 SCT050 BKN120 12/08 Q1024
Conditions at: RJOT (TAKAMATSU AIRPOR, JP) observed 0600 UTC 24 January 2020
Temperature: 12.0°C (54°F)
Dewpoint: 8.0°C (46°F) [RH = 76%]
Pressure (altimeter): 30.24 inches Hg (1024.0 mb)
Winds: from the N (360 degrees) at 7 MPH (6 knots; 3.1 m/s)
Visibility: 6 or more miles (10+ km)
Ceiling: 12000 feet AGL
Clouds: few clouds at 2000 feet AGL
scattered clouds at 5000 feet AGL
broken clouds at 12000 feet AGL
Weather: no significant weather observed at this time

METAR text: RJOT 240500Z 03004KT 350V080 9999 FEW020 SCT040 BKN120 13/08 Q1024
Conditions at: RJOT (TAKAMATSU AIRPOR, JP) observed 0500 UTC 24 January 2020
Temperature: 13.0°C (55°F)
Dewpoint: 8.0°C (46°F) [RH = 72%]
Pressure (altimeter): 30.24 inches Hg (1024.0 mb)
Winds: from the NNE (30 degrees) at 5 MPH (4 knots; 2.1 m/s)
Visibility: 6 or more miles (10+ km)
Ceiling: 12000 feet AGL
Clouds: few clouds at 2000 feet AGL
scattered clouds at 4000 feet AGL
broken clouds at 12000 feet AGL
Weather: no significant weather observed at this time

METAR text: RJOT 240400Z 35005KT 300V040 9999 FEW015 SCT040 BKN120 13/08 Q1024
Conditions at: RJOT (TAKAMATSU AIRPOR, JP) observed 0400 UTC 24 January 2020
Temperature: 13.0°C (55°F)
Dewpoint: 8.0°C (46°F) [RH = 72%]
Pressure (altimeter): 30.24 inches Hg (1024.0 mb)
Winds: from the N (350 degrees) at 6 MPH (5 knots; 2.6 m/s)
Visibility: 6 or more miles (10+ km)
Ceiling: 12000 feet AGL
Clouds: few clouds at 1500 feet AGL
scattered clouds at 4000 feet AGL
broken clouds at 12000 feet AGL
Weather: no significant weather observed at this time

METAR text: RJOT 240300Z 34005KT 270V020 9999 FEW005 SCT020 BKN120 12/09 Q1025
Conditions at: RJOT (TAKAMATSU AIRPOR, JP) observed 0300 UTC 24 January 2020
Temperature: 12.0°C (54°F)
Dewpoint: 9.0°C (48°F) [RH = 82%]
Pressure (altimeter): 30.27 inches Hg (1025.0 mb)
Winds: from the NNW (340 degrees) at 6 MPH (5 knots; 2.6 m/s)
Visibility: 6 or more miles (10+ km)
Ceiling: 12000 feet AGL
Clouds: few clouds at 500 feet AGL
scattered clouds at 2000 feet AGL
broken clouds at 12000 feet AGL
Weather: no significant weather observed at this time

METAR text: RJOT 240200Z 34004KT 9999 FEW001 SCT040 BKN120 12/11 Q1025
Conditions at: RJOT (TAKAMATSU AIRPOR, JP) observed 0200 UTC 24 January 2020
Temperature: 12.0°C (54°F)
Dewpoint: 11.0°C (52°F) [RH = 94%]
Pressure (altimeter): 30.27 inches Hg (1025.0 mb)
Winds: from the NNW (340 degrees) at 5 MPH (4 knots; 2.1 m/s)
Visibility: 6 or more miles (10+ km)
Ceiling: 12000 feet AGL
Clouds: few clouds at 100 feet AGL
scattered clouds at 4000 feet AGL
broken clouds at 12000 feet AGL
Weather: no significant weather observed at this time

METAR text: RJOT 240100Z VRB02KT 9999 FEW001 SCT040 BKN120 12/10 Q1025
Conditions at: RJOT (TAKAMATSU AIRPOR, JP) observed 0100 UTC 24 January 2020
Temperature: 12.0°C (54°F)
Dewpoint: 10.0°C (50°F) [RH = 88%]
Pressure (altimeter): 30.27 inches Hg (1025.0 mb)
Winds: variable direction winds at 2 MPH (2 knots; 1.0 m/s)
Visibility: 6 or more miles (10+ km)
Ceiling: 12000 feet AGL
Clouds: few clouds at 100 feet AGL
scattered clouds at 4000 feet AGL
broken clouds at 12000 feet AGL
Weather: no significant weather observed at this time

METAR text: RJOT 240013Z VRB01KT 5000 BR FEW000 SCT035 BKN100 11/11 Q1024 RMK 1ST000 3CU035 6AC100 A3026 9999S-SW
Conditions at: RJOT (TAKAMATSU AIRPOR, JP) observed 0013 UTC 24 January 2020
Temperature: 11.0°C (52°F)
Dewpoint: 11.0°C (52°F) [RH = 100%]
Pressure (altimeter): 30.24 inches Hg (1024.0 mb)
Winds: variable direction winds at 1 MPH (1 knots; 0.5 m/s)
Visibility: 3 miles ( 5 km)
Ceiling: 10000 feet AGL
Clouds: few clouds at 0 feet AGL
scattered clouds at 3500 feet AGL
broken clouds at 10000 feet AGL
Weather: BR  (mist)

METAR text: RJOT 240000Z 20003KT 160V220 4000 BR FEW000 SCT035 BKN100 11/11 Q1024
Conditions at: RJOT (TAKAMATSU AIRPOR, JP) observed 0000 UTC 24 January 2020
Temperature: 11.0°C (52°F)
Dewpoint: 11.0°C (52°F) [RH = 100%]
Pressure (altimeter): 30.24 inches Hg (1024.0 mb)
Winds: from the SSW (200 degrees) at 3 MPH (3 knots; 1.5 m/s)
Visibility: 2.49 miles (4.01 km)
Ceiling: 10000 feet AGL
Clouds: few clouds at 0 feet AGL
scattered clouds at 3500 feet AGL
broken clouds at 10000 feet AGL
Weather: BR  (mist)

METAR text: RJOT 232344Z 20003KT 160V220 3000 BR FEW000 SCT005 BKN035 11/11 Q1024 RMK 1ST000 3ST005 5CU035 A3026
Conditions at: RJOT (TAKAMATSU AIRPOR, JP) observed 2344 UTC 23 January 2020
Temperature: 11.0°C (52°F)
Dewpoint: 11.0°C (52°F) [RH = 100%]
Pressure (altimeter): 30.24 inches Hg (1024.0 mb)
Winds: from the SSW (200 degrees) at 3 MPH (3 knots; 1.5 m/s)
Visibility: 1.86 miles (2.99 km)
Ceiling: 3500 feet AGL
Clouds: few clouds at 0 feet AGL
scattered clouds at 500 feet AGL
broken clouds at 3500 feet AGL
Weather: BR  (mist)

METAR text: RJOT 232329Z 17003KT 130V210 2000 R26/1000VP2000D BR FEW000 SCT003 BKN035 11/11 Q1024 RMK 1ST000 3ST003 5CU035 A3026
Conditions at: RJOT (TAKAMATSU AIRPOR, JP) observed 2329 UTC 23 January 2020
Temperature: 11.0°C (52°F)
Dewpoint: 11.0°C (52°F) [RH = 100%]
Pressure (altimeter): 30.24 inches Hg (1024.0 mb)
Winds: from the S (170 degrees) at 3 MPH (3 knots; 1.5 m/s)
Visibility: 1.24 miles (2.00 km)
Ceiling: 3500 feet AGL
Clouds: few clouds at 0 feet AGL
scattered clouds at 300 feet AGL
broken clouds at 3500 feet AGL
Weather: BR  (mist)

METAR text: RJOT 232316Z 22003KT 1500 R26/P2000N BR FEW000 SCT003 BKN025 10/10 Q1024 RMK 1ST000 3ST003 5CU025 A3026
Conditions at: RJOT (TAKAMATSU AIRPOR, JP) observed 2316 UTC 23 January 2020
Temperature: 10.0°C (50°F)
Dewpoint: 10.0°C (50°F) [RH = 100%]
Pressure (altimeter): 30.24 inches Hg (1024.0 mb)
Winds: from the SW (220 degrees) at 3 MPH (3 knots; 1.5 m/s)
Visibility: 0.93 miles (1.50 km)
Ceiling: 2500 feet AGL
Clouds: few clouds at 0 feet AGL
scattered clouds at 300 feet AGL
broken clouds at 2500 feet AGL
Weather: BR  (mist)

METAR text: RJOT 232309Z 22004KT 1000 R26/0900VP2000U BR FEW000 SCT001 BKN003 10/10 Q1024 RMK 1ST000 3ST001 5ST003 A3026
Conditions at: RJOT (TAKAMATSU AIRPOR, JP) observed 2309 UTC 23 January 2020
Temperature: 10.0°C (50°F)
Dewpoint: 10.0°C (50°F) [RH = 100%]
Pressure (altimeter): 30.24 inches Hg (1024.0 mb)
Winds: from the SW (220 degrees) at 5 MPH (4 knots; 2.1 m/s)
Visibility: 0.62 miles (1.00 km)
Ceiling: 300 feet AGL
Clouds: few clouds at 0 feet AGL
scattered clouds at 100 feet AGL
broken clouds at 300 feet AGL
Weather: BR  (mist)

METAR text: RJOT 232307Z 23004KT 1000 R26/0900VP2000U BR FEW000 SCT001 BKN003 10/10 Q1024 RMK 1ST000 3ST001 5ST003 A3026
Conditions at: RJOT (TAKAMATSU AIRPOR, JP) observed 2307 UTC 23 January 2020
Temperature: 10.0°C (50°F)
Dewpoint: 10.0°C (50°F) [RH = 100%]
Pressure (altimeter): 30.24 inches Hg (1024.0 mb)
Winds: from the SW (230 degrees) at 5 MPH (4 knots; 2.1 m/s)
Visibility: 0.62 miles (1.00 km)
Ceiling: 300 feet AGL
Clouds: few clouds at 0 feet AGL
scattered clouds at 100 feet AGL
broken clouds at 300 feet AGL
Weather: BR  (mist)

METAR text: RJOT 232305Z 23004KT 0800 R26/0900V2000U FG FEW000 SCT001 BKN003 10/10 Q1024 RMK 1ST000 3ST001 5ST003 A3026
Conditions at: RJOT (TAKAMATSU AIRPOR, JP) observed 2305 UTC 23 January 2020
Temperature: 10.0°C (50°F)
Dewpoint: 10.0°C (50°F) [RH = 100%]
Pressure (altimeter): 30.24 inches Hg (1024.0 mb)
Winds: from the SW (230 degrees) at 5 MPH (4 knots; 2.1 m/s)
Visibility: 0.50 miles (0.80 km)
Ceiling: 300 feet AGL
Clouds: few clouds at 0 feet AGL
scattered clouds at 100 feet AGL
broken clouds at 300 feet AGL
Weather: FG  (fog)

METAR text: RJOT 232302Z 23004KT 0700 R26/0800V1500U FG FEW000 SCT001 BKN002 10/10 Q1024 RMK 1ST000 3ST001 5ST002 A3026
Conditions at: RJOT (TAKAMATSU AIRPOR, JP) observed 2302 UTC 23 January 2020
Temperature: 10.0°C (50°F)
Dewpoint: 10.0°C (50°F) [RH = 100%]
Pressure (altimeter): 30.24 inches Hg (1024.0 mb)
Winds: from the SW (230 degrees) at 5 MPH (4 knots; 2.1 m/s)
Visibility: 0.43 miles (0.69 km)
Ceiling: 200 feet AGL
Clouds: few clouds at 0 feet AGL
scattered clouds at 100 feet AGL
broken clouds at 200 feet AGL
Weather: FG  (fog)

METAR text: RJOT 232300Z 23004KT 0600 R26/0900N FG FEW000 SCT001 BKN002 10/10 Q1024
Conditions at: RJOT (TAKAMATSU AIRPOR, JP) observed 2300 UTC 23 January 2020
Temperature: 10.0°C (50°F)
Dewpoint: 10.0°C (50°F) [RH = 100%]
Pressure (altimeter): 30.24 inches Hg (1024.0 mb)
Winds: from the SW (230 degrees) at 5 MPH (4 knots; 2.1 m/s)
Visibility: 0.37 miles (0.60 km)
Ceiling: 200 feet AGL
Clouds: few clouds at 0 feet AGL
scattered clouds at 100 feet AGL
broken clouds at 200 feet AGL
Weather: FG  (fog)

METAR text: RJOT 232225Z 24003KT 1200 R26/P2000N BR FEW000 SCT001 BKN003 10/10 Q1024 RMK 1ST000 3ST001 5ST003 A3025
Conditions at: RJOT (TAKAMATSU AIRPOR, JP) observed 2225 UTC 23 January 2020
Temperature: 10.0°C (50°F)
Dewpoint: 10.0°C (50°F) [RH = 100%]
Pressure (altimeter): 30.24 inches Hg (1024.0 mb)
Winds: from the WSW (240 degrees) at 3 MPH (3 knots; 1.5 m/s)
Visibility: 0.75 miles (1.21 km)
Ceiling: 300 feet AGL
Clouds: few clouds at 0 feet AGL
scattered clouds at 100 feet AGL
broken clouds at 300 feet AGL
Weather: BR  (mist)

METAR text: RJOT 232200Z 25001KT 1500 R26/2000U BR FEW000 SCT002 BKN004 10/10 Q1023
Conditions at: RJOT (TAKAMATSU AIRPOR, JP) observed 2200 UTC 23 January 2020
Temperature: 10.0°C (50°F)
Dewpoint: 10.0°C (50°F) [RH = 100%]
Pressure (altimeter): 30.21 inches Hg (1023.0 mb)
Winds: from the WSW (250 degrees) at 1 MPH (1 knots; 0.5 m/s)
Visibility: 0.93 miles (1.50 km)
Ceiling: 400 feet AGL
Clouds: few clouds at 0 feet AGL
scattered clouds at 200 feet AGL
broken clouds at 400 feet AGL
Weather: BR  (mist)

METAR text: RJOT 232150Z 00000KT 1500 R26/P2000N BR FEW000 SCT003 BKN006 10/10 Q1023 RMK 1ST000 3ST003 5ST006 A3022
Conditions at: RJOT (TAKAMATSU AIRPOR, JP) observed 2150 UTC 23 January 2020
Temperature: 10.0°C (50°F)
Dewpoint: 10.0°C (50°F) [RH = 100%]
Pressure (altimeter): 30.21 inches Hg (1023.0 mb)
Winds: calm
Visibility: 0.93 miles (1.50 km)
Ceiling: 600 feet AGL
Clouds: few clouds at 0 feet AGL
scattered clouds at 300 feet AGL
broken clouds at 600 feet AGL
Weather: BR  (mist)

METAR text: RJOT 232129Z VRB02KT 2000 R26/1300VP2000D BR FEW000 SCT004 BKN008 10/10 Q1023 RMK 1ST000 3ST004 5ST008 A3022
Conditions at: RJOT (TAKAMATSU AIRPOR, JP) observed 2129 UTC 23 January 2020
Temperature: 10.0°C (50°F)
Dewpoint: 10.0°C (50°F) [RH = 100%]
Pressure (altimeter): 30.21 inches Hg (1023.0 mb)
Winds: variable direction winds at 2 MPH (2 knots; 1.0 m/s)
Visibility: 1.24 miles (2.00 km)
Ceiling: 800 feet AGL
Clouds: few clouds at 0 feet AGL
scattered clouds at 400 feet AGL
broken clouds at 800 feet AGL
Weather: BR  (mist)

METAR text: RJOT 232120Z 31001KT 2500 BR FEW000 SCT005 BKN020 10/10 Q1023 RMK 1ST000 3ST005 5CU020 A3021
Conditions at: RJOT (TAKAMATSU AIRPOR, JP) observed 2120 UTC 23 January 2020
Temperature: 10.0°C (50°F)
Dewpoint: 10.0°C (50°F) [RH = 100%]
Pressure (altimeter): 30.21 inches Hg (1023.0 mb)
Winds: from the NW (310 degrees) at 1 MPH (1 knots; 0.5 m/s)
Visibility: 1.55 miles (2.49 km)
Ceiling: 2000 feet AGL
Clouds: few clouds at 0 feet AGL
scattered clouds at 500 feet AGL
broken clouds at 2000 feet AGL
Weather: BR  (mist)

Forecast for: RJOT (TAKAMATSU AIRPOR, JP)
Text: TAF RJOT 242308Z 2500/2606 08008KT 9999 FEW025 BKN045
Forecast period: 0000 UTC 25 January 2020 to 0600 UTC 26 January 2020
Forecast type: FROM: standard forecast or significant change
Winds: from the E (80 degrees) at 9 MPH (8 knots; 4.1 m/s)
Visibility: 6 or more miles 10+ km)
Ceiling: 4500 feet AGL
Clouds: few clouds at 2500 feet AGL
broken clouds at 4500 feet AGL
Weather: no significant weather forecast for this period
Text: TEMPO 2518/2600 3000 -RA BR FEW002 SCT005 BKN009
Forecast period: 1800 UTC 25 January 2020 to 0000 UTC 26 January 2020
Forecast type: TEMPORARY: The following changes expected for less than half the time period
Visibility: 1.86 miles (2.99 km)
Ceiling: 900 feet AGL
Clouds: few clouds at 200 feet AGL
scattered clouds at 500 feet AGL
broken clouds at 900 feet AGL
Weather: -RA BR  (light rain, mist)